sensor_id;sensor_type;location;lat;lon;timestamp;P1;durP1;ratioP1;P2;durP2;ratioP2
18881;SDS011;9573;50.948;11.600;2023-02-26T00:01:11;7.57;;;1.70;;
18881;SDS011;9573;50.948;11.600;2023-02-26T00:03:40;3.80;;;1.50;;
18881;SDS011;9573;50.948;11.600;2023-02-26T00:06:08;7.73;;;1.93;;
18881;SDS011;9573;50.948;11.600;2023-02-26T00:08:36;5.80;;;1.47;;
18881;SDS011;9573;50.948;11.600;2023-02-26T00:11:05;10.10;;;1.90;;
18881;SDS011;9573;50.948;11.600;2023-02-26T00:13:34;5.00;;;1.70;;
18881;SDS011;9573;50.948;11.600;2023-02-26T00:16:03;5.77;;;1.80;;
18881;SDS011;9573;50.948;11.600;2023-02-26T00:18:41;6.03;;;1.90;;
18881;SDS011;9573;50.948;11.600;2023-02-26T00:21:12;6.33;;;1.80;;
18881;SDS011;9573;50.948;11.600;2023-02-26T00:23:42;7.97;;;1.50;;
18881;SDS011;9573;50.948;11.600;2023-02-26T00:26:10;8.53;;;1.73;;
18881;SDS011;9573;50.948;11.600;2023-02-26T00:28:37;3.80;;;1.40;;
18881;SDS011;9573;50.948;11.600;2023-02-26T00:31:05;6.60;;;1.77;;
18881;SDS011;9573;50.948;11.600;2023-02-26T00:33:34;5.07;;;1.73;;
18881;SDS011;9573;50.948;11.600;2023-02-26T00:36:09;5.10;;;1.53;;
18881;SDS011;9573;50.948;11.600;2023-02-26T00:38:49;7.50;;;1.63;;
18881;SDS011;9573;50.948;11.600;2023-02-26T00:41:29;7.80;;;1.90;;
18881;SDS011;9573;50.948;11.600;2023-02-26T00:43:56;5.97;;;1.90;;
18881;SDS011;9573;50.948;11.600;2023-02-26T00:46:27;5.97;;;1.73;;
18881;SDS011;9573;50.948;11.600;2023-02-26T00:49:06;7.63;;;1.80;;
18881;SDS011;9573;50.948;11.600;2023-02-26T00:51:48;8.37;;;1.70;;
18881;SDS011;9573;50.948;11.600;2023-02-26T00:54:19;5.23;;;1.60;;
18881;SDS011;9573;50.948;11.600;2023-02-26T00:56:49;6.93;;;1.77;;
18881;SDS011;9573;50.948;11.600;2023-02-26T00:59:18;5.07;;;1.60;;
18881;SDS011;9573;50.948;11.600;2023-02-26T01:01:46;6.90;;;1.90;;
18881;SDS011;9573;50.948;11.600;2023-02-26T01:04:15;5.30;;;1.80;;
18881;SDS011;9573;50.948;11.600;2023-02-26T01:06:45;8.03;;;1.90;;
18881;SDS011;9573;50.948;11.600;2023-02-26T01:09:17;5.67;;;1.77;;
18881;SDS011;9573;50.948;11.600;2023-02-26T01:11:51;11.13;;;1.90;;
18881;SDS011;9573;50.948;11.600;2023-02-26T01:14:20;9.10;;;2.33;;
18881;SDS011;9573;50.948;11.600;2023-02-26T01:16:49;11.37;;;1.63;;
18881;SDS011;9573;50.948;11.600;2023-02-26T01:19:25;5.37;;;1.73;;
18881;SDS011;9573;50.948;11.600;2023-02-26T01:22:00;7.17;;;1.70;;
18881;SDS011;9573;50.948;11.600;2023-02-26T01:24:33;8.97;;;2.00;;
18881;SDS011;9573;50.948;11.600;2023-02-26T01:27:02;6.83;;;2.13;;
18881;SDS011;9573;50.948;11.600;2023-02-26T01:29:30;3.40;;;1.33;;
18881;SDS011;9573;50.948;11.600;2023-02-26T01:31:59;5.17;;;1.50;;
18881;SDS011;9573;50.948;11.600;2023-02-26T01:34:33;8.53;;;1.90;;
18881;SDS011;9573;50.948;11.600;2023-02-26T01:37:09;4.93;;;1.93;;
18881;SDS011;9573;50.948;11.600;2023-02-26T01:39:47;9.73;;;2.00;;
18881;SDS011;9573;50.948;11.600;2023-02-26T01:42:41;6.97;;;2.17;;
18881;SDS011;9573;50.948;11.600;2023-02-26T01:45:12;5.30;;;1.60;;
18881;SDS011;9573;50.948;11.600;2023-02-26T01:47:47;7.00;;;1.77;;
18881;SDS011;9573;50.948;11.600;2023-02-26T01:50:22;5.63;;;1.93;;
18881;SDS011;9573;50.948;11.600;2023-02-26T01:55:48;7.80;;;2.07;;
18881;SDS011;9573;50.948;11.600;2023-02-26T01:58:19;7.67;;;1.70;;
18881;SDS011;9573;50.948;11.600;2023-02-26T02:00:48;9.63;;;1.67;;
18881;SDS011;9573;50.948;11.600;2023-02-26T02:03:16;8.83;;;2.17;;
18881;SDS011;9573;50.948;11.600;2023-02-26T02:05:46;4.50;;;1.77;;
18881;SDS011;9573;50.948;11.600;2023-02-26T02:08:16;13.97;;;2.20;;
18881;SDS011;9573;50.948;11.600;2023-02-26T02:10:47;9.20;;;2.03;;
18881;SDS011;9573;50.948;11.600;2023-02-26T02:13:19;10.73;;;2.10;;
18881;SDS011;9573;50.948;11.600;2023-02-26T02:16:02;6.10;;;2.10;;
18881;SDS011;9573;50.948;11.600;2023-02-26T02:18:42;8.67;;;2.07;;
18881;SDS011;9573;50.948;11.600;2023-02-26T02:21:24;9.90;;;2.10;;
18881;SDS011;9573;50.948;11.600;2023-02-26T02:24:25;6.83;;;1.77;;
18881;SDS011;9573;50.948;11.600;2023-02-26T02:27:02;8.47;;;2.50;;
18881;SDS011;9573;50.948;11.600;2023-02-26T02:29:49;6.27;;;2.10;;
18881;SDS011;9573;50.948;11.600;2023-02-26T02:32:43;8.37;;;2.10;;
18881;SDS011;9573;50.948;11.600;2023-02-26T02:35:17;5.67;;;2.00;;
18881;SDS011;9573;50.948;11.600;2023-02-26T02:37:52;8.87;;;2.30;;
18881;SDS011;9573;50.948;11.600;2023-02-26T02:40:24;6.33;;;2.20;;
18881;SDS011;9573;50.948;11.600;2023-02-26T02:42:56;9.13;;;2.30;;
18881;SDS011;9573;50.948;11.600;2023-02-26T02:45:28;5.20;;;2.03;;
18881;SDS011;9573;50.948;11.600;2023-02-26T02:48:05;5.53;;;2.23;;
18881;SDS011;9573;50.948;11.600;2023-02-26T02:50:37;8.70;;;2.07;;
18881;SDS011;9573;50.948;11.600;2023-02-26T02:53:10;8.10;;;2.10;;
18881;SDS011;9573;50.948;11.600;2023-02-26T02:55:43;4.43;;;2.07;;
18881;SDS011;9573;50.948;11.600;2023-02-26T02:58:17;6.93;;;2.30;;
18881;SDS011;9573;50.948;11.600;2023-02-26T03:00:49;10.27;;;2.33;;
18881;SDS011;9573;50.948;11.600;2023-02-26T03:03:23;5.77;;;2.10;;
18881;SDS011;9573;50.948;11.600;2023-02-26T03:05:57;5.03;;;2.20;;
18881;SDS011;9573;50.948;11.600;2023-02-26T03:08:25;4.43;;;2.10;;
18881;SDS011;9573;50.948;11.600;2023-02-26T03:10:54;6.23;;;2.30;;
18881;SDS011;9573;50.948;11.600;2023-02-26T03:13:23;8.57;;;2.20;;
18881;SDS011;9573;50.948;11.600;2023-02-26T03:15:55;6.87;;;2.60;;
18881;SDS011;9573;50.948;11.600;2023-02-26T03:18:37;11.23;;;2.17;;
18881;SDS011;9573;50.948;11.600;2023-02-26T03:21:17;6.53;;;2.10;;
18881;SDS011;9573;50.948;11.600;2023-02-26T03:23:54;5.07;;;2.00;;
18881;SDS011;9573;50.948;11.600;2023-02-26T03:26:28;6.83;;;2.03;;
18881;SDS011;9573;50.948;11.600;2023-02-26T03:29:05;5.50;;;2.40;;
18881;SDS011;9573;50.948;11.600;2023-02-26T03:31:36;7.07;;;2.10;;
18881;SDS011;9573;50.948;11.600;2023-02-26T03:34:16;8.63;;;2.37;;
18881;SDS011;9573;50.948;11.600;2023-02-26T03:36:53;9.33;;;2.20;;
18881;SDS011;9573;50.948;11.600;2023-02-26T03:39:26;8.27;;;2.60;;
18881;SDS011;9573;50.948;11.600;2023-02-26T03:41:57;5.57;;;2.60;;
18881;SDS011;9573;50.948;11.600;2023-02-26T03:44:30;5.97;;;2.63;;
18881;SDS011;9573;50.948;11.600;2023-02-26T03:47:03;9.73;;;3.00;;
18881;SDS011;9573;50.948;11.600;2023-02-26T03:49:36;7.73;;;2.53;;
18881;SDS011;9573;50.948;11.600;2023-02-26T03:52:07;6.07;;;2.60;;
18881;SDS011;9573;50.948;11.600;2023-02-26T03:54:36;5.27;;;2.40;;
18881;SDS011;9573;50.948;11.600;2023-02-26T03:57:07;6.10;;;2.50;;
18881;SDS011;9573;50.948;11.600;2023-02-26T03:59:34;4.33;;;2.47;;
18881;SDS011;9573;50.948;11.600;2023-02-26T04:02:02;7.17;;;2.60;;
18881;SDS011;9573;50.948;11.600;2023-02-26T04:04:38;8.77;;;2.97;;
18881;SDS011;9573;50.948;11.600;2023-02-26T04:07:10;8.47;;;2.90;;
18881;SDS011;9573;50.948;11.600;2023-02-26T04:09:40;10.27;;;3.30;;
18881;SDS011;9573;50.948;11.600;2023-02-26T04:12:07;8.60;;;3.07;;
18881;SDS011;9573;50.948;11.600;2023-02-26T04:14:35;8.97;;;2.93;;
18881;SDS011;9573;50.948;11.600;2023-02-26T04:17:02;12.27;;;3.37;;
18881;SDS011;9573;50.948;11.600;2023-02-26T04:19:30;10.77;;;3.50;;
18881;SDS011;9573;50.948;11.600;2023-02-26T04:21:59;9.07;;;3.40;;
18881;SDS011;9573;50.948;11.600;2023-02-26T04:24:26;9.70;;;3.60;;
18881;SDS011;9573;50.948;11.600;2023-02-26T04:26:53;9.00;;;3.50;;
18881;SDS011;9573;50.948;11.600;2023-02-26T04:29:20;10.50;;;3.33;;
18881;SDS011;9573;50.948;11.600;2023-02-26T04:31:47;9.70;;;2.97;;
18881;SDS011;9573;50.948;11.600;2023-02-26T04:34:14;6.90;;;2.83;;
18881;SDS011;9573;50.948;11.600;2023-02-26T04:36:41;9.50;;;3.10;;
18881;SDS011;9573;50.948;11.600;2023-02-26T04:39:10;6.37;;;2.90;;
18881;SDS011;9573;50.948;11.600;2023-02-26T04:41:37;6.60;;;2.83;;
18881;SDS011;9573;50.948;11.600;2023-02-26T04:44:04;15.33;;;2.70;;
18881;SDS011;9573;50.948;11.600;2023-02-26T04:46:32;8.97;;;2.87;;
18881;SDS011;9573;50.948;11.600;2023-02-26T04:48:59;6.73;;;2.97;;
18881;SDS011;9573;50.948;11.600;2023-02-26T04:51:26;6.73;;;2.90;;
18881;SDS011;9573;50.948;11.600;2023-02-26T04:53:53;6.17;;;3.10;;
18881;SDS011;9573;50.948;11.600;2023-02-26T04:56:23;9.03;;;2.87;;
18881;SDS011;9573;50.948;11.600;2023-02-26T04:58:50;6.87;;;2.90;;
18881;SDS011;9573;50.948;11.600;2023-02-26T05:01:17;6.23;;;2.50;;
18881;SDS011;9573;50.948;11.600;2023-02-26T05:03:44;5.93;;;2.97;;
18881;SDS011;9573;50.948;11.600;2023-02-26T05:06:11;12.13;;;3.03;;
18881;SDS011;9573;50.948;11.600;2023-02-26T05:08:38;11.70;;;2.97;;
18881;SDS011;9573;50.948;11.600;2023-02-26T05:11:07;6.57;;;2.90;;
18881;SDS011;9573;50.948;11.600;2023-02-26T05:13:35;8.30;;;3.00;;
18881;SDS011;9573;50.948;11.600;2023-02-26T05:16:04;8.43;;;2.90;;
18881;SDS011;9573;50.948;11.600;2023-02-26T05:18:32;9.00;;;2.80;;
18881;SDS011;9573;50.948;11.600;2023-02-26T05:20:59;8.00;;;2.47;;
18881;SDS011;9573;50.948;11.600;2023-02-26T05:23:26;4.63;;;2.20;;
18881;SDS011;9573;50.948;11.600;2023-02-26T05:25:54;7.03;;;2.33;;
18881;SDS011;9573;50.948;11.600;2023-02-26T05:28:21;7.03;;;2.30;;
18881;SDS011;9573;50.948;11.600;2023-02-26T05:30:50;11.50;;;2.40;;
18881;SDS011;9573;50.948;11.600;2023-02-26T05:33:17;9.17;;;2.40;;
18881;SDS011;9573;50.948;11.600;2023-02-26T05:35:45;6.20;;;2.07;;
18881;SDS011;9573;50.948;11.600;2023-02-26T05:38:13;5.67;;;2.30;;
18881;SDS011;9573;50.948;11.600;2023-02-26T05:40:40;6.77;;;2.67;;
18881;SDS011;9573;50.948;11.600;2023-02-26T05:43:07;7.23;;;2.00;;
18881;SDS011;9573;50.948;11.600;2023-02-26T05:45:34;9.27;;;2.27;;
18881;SDS011;9573;50.948;11.600;2023-02-26T05:48:03;7.07;;;2.23;;
18881;SDS011;9573;50.948;11.600;2023-02-26T05:50:30;6.37;;;2.30;;
18881;SDS011;9573;50.948;11.600;2023-02-26T05:52:57;7.17;;;2.20;;
18881;SDS011;9573;50.948;11.600;2023-02-26T05:55:25;5.57;;;2.00;;
18881;SDS011;9573;50.948;11.600;2023-02-26T05:57:52;9.03;;;2.27;;
18881;SDS011;9573;50.948;11.600;2023-02-26T06:00:19;3.13;;;2.00;;
18881;SDS011;9573;50.948;11.600;2023-02-26T06:02:46;5.33;;;2.03;;
18881;SDS011;9573;50.948;11.600;2023-02-26T06:05:15;6.63;;;2.33;;
18881;SDS011;9573;50.948;11.600;2023-02-26T06:07:42;5.77;;;2.27;;
18881;SDS011;9573;50.948;11.600;2023-02-26T06:10:11;3.93;;;1.90;;
18881;SDS011;9573;50.948;11.600;2023-02-26T06:12:38;7.00;;;2.23;;
18881;SDS011;9573;50.948;11.600;2023-02-26T06:15:05;8.07;;;2.53;;
18881;SDS011;9573;50.948;11.600;2023-02-26T06:17:34;4.30;;;2.23;;
18881;SDS011;9573;50.948;11.600;2023-02-26T06:20:02;5.33;;;1.80;;
18881;SDS011;9573;50.948;11.600;2023-02-26T06:22:31;5.47;;;2.37;;
18881;SDS011;9573;50.948;11.600;2023-02-26T06:25:01;7.03;;;2.23;;
18881;SDS011;9573;50.948;11.600;2023-02-26T06:27:29;5.47;;;1.97;;
18881;SDS011;9573;50.948;11.600;2023-02-26T06:29:57;4.53;;;2.00;;
18881;SDS011;9573;50.948;11.600;2023-02-26T06:32:24;5.87;;;2.10;;
18881;SDS011;9573;50.948;11.600;2023-02-26T06:34:51;8.20;;;2.37;;
18881;SDS011;9573;50.948;11.600;2023-02-26T06:37:18;5.17;;;1.90;;
18881;SDS011;9573;50.948;11.600;2023-02-26T06:39:46;10.40;;;2.00;;
18881;SDS011;9573;50.948;11.600;2023-02-26T06:42:14;5.20;;;2.40;;
18881;SDS011;9573;50.948;11.600;2023-02-26T06:44:41;7.20;;;2.10;;
18881;SDS011;9573;50.948;11.600;2023-02-26T06:47:08;6.17;;;2.00;;
18881;SDS011;9573;50.948;11.600;2023-02-26T06:49:35;9.03;;;2.87;;
18881;SDS011;9573;50.948;11.600;2023-02-26T06:52:02;7.40;;;2.07;;
18881;SDS011;9573;50.948;11.600;2023-02-26T06:54:29;4.63;;;2.20;;
18881;SDS011;9573;50.948;11.600;2023-02-26T06:56:57;6.37;;;2.50;;
18881;SDS011;9573;50.948;11.600;2023-02-26T06:59:26;5.17;;;2.20;;
18881;SDS011;9573;50.948;11.600;2023-02-26T07:01:53;7.50;;;2.30;;
18881;SDS011;9573;50.948;11.600;2023-02-26T07:04:21;6.63;;;2.60;;
18881;SDS011;9573;50.948;11.600;2023-02-26T07:06:48;8.13;;;2.57;;
18881;SDS011;9573;50.948;11.600;2023-02-26T07:09:15;8.87;;;2.40;;
18881;SDS011;9573;50.948;11.600;2023-02-26T07:11:43;9.87;;;2.60;;
18881;SDS011;9573;50.948;11.600;2023-02-26T07:14:12;7.80;;;2.50;;
18881;SDS011;9573;50.948;11.600;2023-02-26T07:16:39;7.60;;;2.40;;
18881;SDS011;9573;50.948;11.600;2023-02-26T07:19:06;9.07;;;2.60;;
18881;SDS011;9573;50.948;11.600;2023-02-26T07:21:33;6.67;;;2.60;;
18881;SDS011;9573;50.948;11.600;2023-02-26T07:24:00;6.47;;;2.47;;
18881;SDS011;9573;50.948;11.600;2023-02-26T07:26:27;8.03;;;2.40;;
18881;SDS011;9573;50.948;11.600;2023-02-26T07:28:55;6.67;;;2.53;;
18881;SDS011;9573;50.948;11.600;2023-02-26T07:31:23;7.50;;;2.30;;
18881;SDS011;9573;50.948;11.600;2023-02-26T07:33:50;9.60;;;2.53;;
18881;SDS011;9573;50.948;11.600;2023-02-26T07:36:17;10.97;;;2.47;;
18881;SDS011;9573;50.948;11.600;2023-02-26T07:38:44;5.47;;;2.60;;
18881;SDS011;9573;50.948;11.600;2023-02-26T07:41:15;8.07;;;2.80;;
18881;SDS011;9573;50.948;11.600;2023-02-26T07:43:43;11.73;;;2.70;;
18881;SDS011;9573;50.948;11.600;2023-02-26T07:46:10;13.53;;;2.60;;
18881;SDS011;9573;50.948;11.600;2023-02-26T07:48:39;8.48;;;2.72;;
18881;SDS011;9573;50.948;11.600;2023-02-26T07:51:06;9.50;;;2.53;;
18881;SDS011;9573;50.948;11.600;2023-02-26T07:53:35;8.13;;;2.60;;
18881;SDS011;9573;50.948;11.600;2023-02-26T07:56:04;8.70;;;2.73;;
18881;SDS011;9573;50.948;11.600;2023-02-26T07:58:31;10.83;;;2.60;;
18881;SDS011;9573;50.948;11.600;2023-02-26T08:00:58;8.40;;;2.23;;
18881;SDS011;9573;50.948;11.600;2023-02-26T08:03:25;6.83;;;2.23;;
18881;SDS011;9573;50.948;11.600;2023-02-26T08:05:57;8.60;;;2.80;;
18881;SDS011;9573;50.948;11.600;2023-02-26T08:08:25;7.47;;;2.47;;
18881;SDS011;9573;50.948;11.600;2023-02-26T08:10:52;13.77;;;2.63;;
18881;SDS011;9573;50.948;11.600;2023-02-26T08:13:20;7.77;;;2.40;;
18881;SDS011;9573;50.948;11.600;2023-02-26T08:15:47;7.17;;;2.63;;
18881;SDS011;9573;50.948;11.600;2023-02-26T08:18:15;6.43;;;2.30;;
18881;SDS011;9573;50.948;11.600;2023-02-26T08:20:42;9.83;;;2.50;;
18881;SDS011;9573;50.948;11.600;2023-02-26T08:23:11;8.83;;;2.03;;
18881;SDS011;9573;50.948;11.600;2023-02-26T08:25:38;6.67;;;2.20;;
18881;SDS011;9573;50.948;11.600;2023-02-26T08:28:05;4.63;;;2.20;;
18881;SDS011;9573;50.948;11.600;2023-02-26T08:30:32;7.87;;;2.10;;
18881;SDS011;9573;50.948;11.600;2023-02-26T08:33:02;6.33;;;2.10;;
18881;SDS011;9573;50.948;11.600;2023-02-26T08:35:29;8.97;;;2.20;;
18881;SDS011;9573;50.948;11.600;2023-02-26T08:37:59;8.10;;;1.90;;
18881;SDS011;9573;50.948;11.600;2023-02-26T08:40:29;3.53;;;1.73;;
18881;SDS011;9573;50.948;11.600;2023-02-26T08:42:57;6.50;;;2.03;;
18881;SDS011;9573;50.948;11.600;2023-02-26T08:45:24;5.97;;;2.03;;
18881;SDS011;9573;50.948;11.600;2023-02-26T08:47:51;7.77;;;2.30;;
18881;SDS011;9573;50.948;11.600;2023-02-26T08:50:19;4.90;;;1.77;;
18881;SDS011;9573;50.948;11.600;2023-02-26T08:52:47;3.63;;;2.13;;
18881;SDS011;9573;50.948;11.600;2023-02-26T08:55:14;5.33;;;2.17;;
18881;SDS011;9573;50.948;11.600;2023-02-26T08:57:43;7.80;;;2.23;;
18881;SDS011;9573;50.948;11.600;2023-02-26T09:00:10;6.60;;;2.10;;
18881;SDS011;9573;50.948;11.600;2023-02-26T09:02:40;10.23;;;2.27;;
18881;SDS011;9573;50.948;11.600;2023-02-26T09:05:08;6.30;;;2.13;;
18881;SDS011;9573;50.948;11.600;2023-02-26T09:07:36;6.70;;;2.13;;
18881;SDS011;9573;50.948;11.600;2023-02-26T09:10:03;7.90;;;1.40;;
18881;SDS011;9573;50.948;11.600;2023-02-26T09:12:32;6.40;;;1.87;;
18881;SDS011;9573;50.948;11.600;2023-02-26T09:15:02;6.30;;;2.00;;
18881;SDS011;9573;50.948;11.600;2023-02-26T09:17:31;6.43;;;2.17;;
18881;SDS011;9573;50.948;11.600;2023-02-26T09:19:58;6.73;;;1.87;;
18881;SDS011;9573;50.948;11.600;2023-02-26T09:22:26;6.40;;;1.70;;
18881;SDS011;9573;50.948;11.600;2023-02-26T09:24:53;7.63;;;1.80;;
18881;SDS011;9573;50.948;11.600;2023-02-26T09:27:21;7.47;;;1.90;;
18881;SDS011;9573;50.948;11.600;2023-02-26T09:29:49;9.07;;;2.17;;
18881;SDS011;9573;50.948;11.600;2023-02-26T09:32:17;5.57;;;2.27;;
18881;SDS011;9573;50.948;11.600;2023-02-26T09:34:44;6.73;;;1.80;;
18881;SDS011;9573;50.948;11.600;2023-02-26T09:37:12;9.20;;;2.27;;
18881;SDS011;9573;50.948;11.600;2023-02-26T09:39:39;8.23;;;2.00;;
18881;SDS011;9573;50.948;11.600;2023-02-26T09:42:08;9.93;;;2.37;;
18881;SDS011;9573;50.948;11.600;2023-02-26T09:44:58;9.03;;;2.70;;
18881;SDS011;9573;50.948;11.600;2023-02-26T09:47:29;7.87;;;2.77;;
18881;SDS011;9573;50.948;11.600;2023-02-26T09:50:08;9.33;;;2.83;;
18881;SDS011;9573;50.948;11.600;2023-02-26T09:52:44;11.03;;;3.30;;
18881;SDS011;9573;50.948;11.600;2023-02-26T09:55:18;6.60;;;3.20;;
18881;SDS011;9573;50.948;11.600;2023-02-26T09:57:56;7.40;;;3.30;;
18881;SDS011;9573;50.948;11.600;2023-02-26T10:00:28;7.97;;;3.40;;
18881;SDS011;9573;50.948;11.600;2023-02-26T10:03:08;7.43;;;3.00;;
18881;SDS011;9573;50.948;11.600;2023-02-26T10:05:52;9.00;;;3.23;;
18881;SDS011;9573;50.948;11.600;2023-02-26T10:08:51;7.17;;;2.50;;
18881;SDS011;9573;50.948;11.600;2023-02-26T10:11:51;4.87;;;1.90;;
18881;SDS011;9573;50.948;11.600;2023-02-26T10:14:25;5.60;;;1.93;;
18881;SDS011;9573;50.948;11.600;2023-02-26T10:16:58;5.50;;;2.10;;
18881;SDS011;9573;50.948;11.600;2023-02-26T10:19:33;10.57;;;2.87;;
18881;SDS011;9573;50.948;11.600;2023-02-26T10:22:12;5.27;;;1.70;;
18881;SDS011;9573;50.948;11.600;2023-02-26T10:24:46;6.30;;;2.13;;
18881;SDS011;9573;50.948;11.600;2023-02-26T10:27:23;7.73;;;1.90;;
18881;SDS011;9573;50.948;11.600;2023-02-26T10:30:05;6.53;;;1.83;;
18881;SDS011;9573;50.948;11.600;2023-02-26T10:32:42;7.60;;;1.77;;
18881;SDS011;9573;50.948;11.600;2023-02-26T10:35:21;5.37;;;2.10;;
18881;SDS011;9573;50.948;11.600;2023-02-26T10:37:52;4.80;;;1.80;;
18881;SDS011;9573;50.948;11.600;2023-02-26T10:40:29;3.27;;;1.37;;
18881;SDS011;9573;50.948;11.600;2023-02-26T10:43:03;6.70;;;1.60;;
18881;SDS011;9573;50.948;11.600;2023-02-26T10:45:39;5.90;;;1.80;;
18881;SDS011;9573;50.948;11.600;2023-02-26T10:48:21;5.80;;;1.67;;
18881;SDS011;9573;50.948;11.600;2023-02-26T10:51:09;2.63;;;1.73;;
18881;SDS011;9573;50.948;11.600;2023-02-26T10:53:41;4.60;;;1.70;;
18881;SDS011;9573;50.948;11.600;2023-02-26T10:56:15;1.87;;;1.40;;
18881;SDS011;9573;50.948;11.600;2023-02-26T10:58:47;8.57;;;1.57;;
18881;SDS011;9573;50.948;11.600;2023-02-26T11:01:17;6.30;;;1.60;;
18881;SDS011;9573;50.948;11.600;2023-02-26T11:03:46;4.77;;;1.30;;
18881;SDS011;9573;50.948;11.600;2023-02-26T11:06:20;3.10;;;1.20;;
18881;SDS011;9573;50.948;11.600;2023-02-26T11:08:53;4.33;;;1.37;;
18881;SDS011;9573;50.948;11.600;2023-02-26T11:11:34;2.47;;;1.37;;
18881;SDS011;9573;50.948;11.600;2023-02-26T11:14:06;6.63;;;1.50;;
18881;SDS011;9573;50.948;11.600;2023-02-26T11:16:34;4.20;;;1.80;;
18881;SDS011;9573;50.948;11.600;2023-02-26T11:19:07;6.43;;;1.60;;
18881;SDS011;9573;50.948;11.600;2023-02-26T11:21:37;3.70;;;2.00;;
18881;SDS011;9573;50.948;11.600;2023-02-26T11:24:07;6.10;;;1.93;;
18881;SDS011;9573;50.948;11.600;2023-02-26T11:26:42;2.93;;;1.47;;
18881;SDS011;9573;50.948;11.600;2023-02-26T11:29:16;4.20;;;1.07;;
18881;SDS011;9573;50.948;11.600;2023-02-26T11:31:46;3.03;;;1.50;;
18881;SDS011;9573;50.948;11.600;2023-02-26T11:34:15;6.33;;;1.63;;
18881;SDS011;9573;50.948;11.600;2023-02-26T11:36:49;5.17;;;1.70;;
18881;SDS011;9573;50.948;11.600;2023-02-26T11:39:21;5.10;;;1.50;;
18881;SDS011;9573;50.948;11.600;2023-02-26T11:41:52;2.67;;;1.40;;
18881;SDS011;9573;50.948;11.600;2023-02-26T11:44:25;3.57;;;1.63;;
18881;SDS011;9573;50.948;11.600;2023-02-26T11:47:01;4.07;;;1.57;;
18881;SDS011;9573;50.948;11.600;2023-02-26T11:49:32;1.50;;;1.07;;
18881;SDS011;9573;50.948;11.600;2023-02-26T11:52:03;4.60;;;1.50;;
18881;SDS011;9573;50.948;11.600;2023-02-26T11:54:41;4.03;;;1.40;;
18881;SDS011;9573;50.948;11.600;2023-02-26T11:57:14;3.83;;;1.63;;
18881;SDS011;9573;50.948;11.600;2023-02-26T11:59:44;4.10;;;1.50;;
18881;SDS011;9573;50.948;11.600;2023-02-26T12:02:17;4.77;;;1.73;;
18881;SDS011;9573;50.948;11.600;2023-02-26T12:04:48;2.63;;;1.47;;
18881;SDS011;9573;50.948;11.600;2023-02-26T12:07:19;7.13;;;1.67;;
18881;SDS011;9573;50.948;11.600;2023-02-26T12:09:47;4.73;;;1.53;;
18881;SDS011;9573;50.948;11.600;2023-02-26T12:12:21;3.83;;;1.30;;
18881;SDS011;9573;50.948;11.600;2023-02-26T12:15:14;6.97;;;1.87;;
18881;SDS011;9573;50.948;11.600;2023-02-26T12:20:46;5.37;;;1.40;;
18881;SDS011;9573;50.948;11.600;2023-02-26T12:23:47;3.57;;;1.40;;
18881;SDS011;9573;50.948;11.600;2023-02-26T12:26:45;5.53;;;1.47;;
18881;SDS011;9573;50.948;11.600;2023-02-26T12:29:26;9.43;;;2.00;;
18881;SDS011;9573;50.948;11.600;2023-02-26T12:32:22;2.47;;;1.33;;
18881;SDS011;9573;50.948;11.600;2023-02-26T12:38:18;3.30;;;1.57;;
18881;SDS011;9573;50.948;11.600;2023-02-26T12:41:14;3.50;;;0.90;;
18881;SDS011;9573;50.948;11.600;2023-02-26T12:44:06;1.83;;;0.80;;
18881;SDS011;9573;50.948;11.600;2023-02-26T12:46:49;2.67;;;1.00;;
18881;SDS011;9573;50.948;11.600;2023-02-26T12:52:38;4.57;;;1.47;;
18881;SDS011;9573;50.948;11.600;2023-02-26T12:55:32;2.80;;;1.00;;
18881;SDS011;9573;50.948;11.600;2023-02-26T13:01:30;1.80;;;1.20;;
18881;SDS011;9573;50.948;11.600;2023-02-26T13:04:34;7.60;;;2.10;;
18881;SDS011;9573;50.948;11.600;2023-02-26T13:10:41;2.77;;;1.27;;
18881;SDS011;9573;50.948;11.600;2023-02-26T13:13:25;3.53;;;1.10;;
18881;SDS011;9573;50.948;11.600;2023-02-26T13:16:23;3.00;;;1.20;;
18881;SDS011;9573;50.948;11.600;2023-02-26T13:19:04;3.73;;;1.30;;
18881;SDS011;9573;50.948;11.600;2023-02-26T13:21:42;5.20;;;1.63;;
18881;SDS011;9573;50.948;11.600;2023-02-26T13:24:13;2.53;;;1.40;;
18881;SDS011;9573;50.948;11.600;2023-02-26T13:26:44;2.73;;;1.20;;
18881;SDS011;9573;50.948;11.600;2023-02-26T13:29:14;1.87;;;1.20;;
18881;SDS011;9573;50.948;11.600;2023-02-26T13:31:46;1.83;;;1.40;;
18881;SDS011;9573;50.948;11.600;2023-02-26T13:34:19;11.90;;;2.87;;
18881;SDS011;9573;50.948;11.600;2023-02-26T13:36:56;5.87;;;1.77;;
18881;SDS011;9573;50.948;11.600;2023-02-26T13:39:31;4.33;;;1.00;;
18881;SDS011;9573;50.948;11.600;2023-02-26T13:42:09;4.87;;;1.30;;
18881;SDS011;9573;50.948;11.600;2023-02-26T13:44:53;1.73;;;0.90;;
18881;SDS011;9573;50.948;11.600;2023-02-26T13:47:54;6.23;;;1.13;;
18881;SDS011;9573;50.948;11.600;2023-02-26T13:50:35;3.60;;;1.23;;
18881;SDS011;9573;50.948;11.600;2023-02-26T13:56:42;4.73;;;1.00;;
18881;SDS011;9573;50.948;11.600;2023-02-26T14:02:43;3.57;;;1.20;;
18881;SDS011;9573;50.948;11.600;2023-02-26T14:08:41;4.30;;;0.80;;
18881;SDS011;9573;50.948;11.600;2023-02-26T14:14:15;3.67;;;1.10;;
18881;SDS011;9573;50.948;11.600;2023-02-26T14:16:50;3.93;;;1.20;;
18881;SDS011;9573;50.948;11.600;2023-02-26T14:19:30;3.27;;;0.87;;
18881;SDS011;9573;50.948;11.600;2023-02-26T14:22:12;3.60;;;1.30;;
18881;SDS011;9573;50.948;11.600;2023-02-26T14:24:45;3.03;;;1.40;;
18881;SDS011;9573;50.948;11.600;2023-02-26T14:27:21;3.20;;;1.47;;
18881;SDS011;9573;50.948;11.600;2023-02-26T14:29:58;3.90;;;1.40;;
18881;SDS011;9573;50.948;11.600;2023-02-26T14:32:32;2.80;;;1.40;;
18881;SDS011;9573;50.948;11.600;2023-02-26T14:35:12;3.27;;;1.37;;
18881;SDS011;9573;50.948;11.600;2023-02-26T14:37:46;6.00;;;1.57;;
18881;SDS011;9573;50.948;11.600;2023-02-26T14:40:22;2.87;;;1.20;;
18881;SDS011;9573;50.948;11.600;2023-02-26T14:42:51;1.93;;;1.00;;
18881;SDS011;9573;50.948;11.600;2023-02-26T14:45:23;4.83;;;1.70;;
18881;SDS011;9573;50.948;11.600;2023-02-26T14:47:55;3.20;;;1.90;;
18881;SDS011;9573;50.948;11.600;2023-02-26T14:50:25;4.07;;;1.80;;
18881;SDS011;9573;50.948;11.600;2023-02-26T14:56:19;3.27;;;1.43;;
18881;SDS011;9573;50.948;11.600;2023-02-26T14:59:09;8.97;;;1.60;;
18881;SDS011;9573;50.948;11.600;2023-02-26T15:01:58;4.57;;;1.70;;
18881;SDS011;9573;50.948;11.600;2023-02-26T15:04:47;2.70;;;1.40;;
18881;SDS011;9573;50.948;11.600;2023-02-26T15:07:38;3.83;;;1.30;;
18881;SDS011;9573;50.948;11.600;2023-02-26T15:10:32;3.43;;;0.87;;
18881;SDS011;9573;50.948;11.600;2023-02-26T15:13:16;5.83;;;1.27;;
18881;SDS011;9573;50.948;11.600;2023-02-26T15:16:07;2.10;;;1.00;;
18881;SDS011;9573;50.948;11.600;2023-02-26T15:18:53;2.83;;;1.50;;
18881;SDS011;9573;50.948;11.600;2023-02-26T15:21:41;3.67;;;1.33;;
18881;SDS011;9573;50.948;11.600;2023-02-26T15:24:21;2.23;;;1.20;;
18881;SDS011;9573;50.948;11.600;2023-02-26T15:26:51;6.07;;;1.37;;
18881;SDS011;9573;50.948;11.600;2023-02-26T15:29:28;5.63;;;1.30;;
18881;SDS011;9573;50.948;11.600;2023-02-26T15:31:59;1.93;;;1.13;;
18881;SDS011;9573;50.948;11.600;2023-02-26T15:34:32;3.10;;;1.43;;
18881;SDS011;9573;50.948;11.600;2023-02-26T15:36:59;5.47;;;1.37;;
18881;SDS011;9573;50.948;11.600;2023-02-26T15:39:27;2.20;;;1.10;;
18881;SDS011;9573;50.948;11.600;2023-02-26T15:41:55;3.80;;;1.27;;
18881;SDS011;9573;50.948;11.600;2023-02-26T15:44:24;5.27;;;1.53;;
18881;SDS011;9573;50.948;11.600;2023-02-26T15:46:56;3.73;;;1.20;;
18881;SDS011;9573;50.948;11.600;2023-02-26T15:49:27;3.30;;;1.27;;
18881;SDS011;9573;50.948;11.600;2023-02-26T15:51:59;4.10;;;1.53;;
18881;SDS011;9573;50.948;11.600;2023-02-26T15:54:29;5.63;;;1.40;;
18881;SDS011;9573;50.948;11.600;2023-02-26T15:57:03;5.03;;;1.50;;